Time;durP1;ratioP1;P1;durP2;ratioP2;P2;SDS_P1;SDS_P2;PMS_P1;PMS_P2;Temp;Humidity;BMP_temperature;BMP_pressure;BME280_temperature;BME280_humidity;BME280_pressure;Samples;Min_cycle;Max_cycle;Signal;HPM_P1;HPM_P2
2021/05/14 00:00:31;;;;;;;4.63;3.03;;;;;;;19.59;44.64;98782.31;5057580;28;20025;-76
2021/05/14 00:02:57;;;;;;;4.20;2.90;;;;;;;19.53;45.04;98789.50;5057586;28;20116;-78
2021/05/14 00:05:23;;;;;;;6.55;3.13;;;;;;;19.59;45.18;98809.91;5057682;28;20064;-77
2021/05/14 00:07:48;;;;;;;7.25;3.08;;;;;;;19.61;45.33;98820.38;5042659;28;20167;-77
2021/05/14 00:10:16;;;;;;;5.97;3.13;;;;;;;19.60;45.42;98813.38;5045714;28;20036;-77
2021/05/14 00:12:42;;;;;;;6.13;3.38;;;;;;;19.43;45.68;98812.66;5041057;28;20029;-75
2021/05/14 00:15:08;;;;;;;5.47;3.28;;;;;;;19.47;45.91;98833.31;5057483;28;20445;-78
2021/05/14 00:17:34;;;;;;;5.15;3.45;;;;;;;19.13;46.11;98794.41;5057140;28;20029;-77
2021/05/14 00:20:00;;;;;;;4.72;3.75;;;;;;;19.25;46.01;98806.56;5057208;28;20108;-77
2021/05/14 00:22:26;;;;;;;6.18;3.60;;;;;;;19.40;46.04;98829.22;5057166;28;20166;-77
2021/05/14 00:24:51;;;;;;;4.72;3.40;;;;;;;18.83;46.09;98734.16;5057211;28;20060;-77
2021/05/14 00:27:17;;;;;;;4.93;3.10;;;;;;;19.32;46.07;98811.72;5056895;28;20087;-77
2021/05/14 00:29:42;;;;;;;6.32;3.20;;;;;;;19.29;46.13;98821.06;5057002;28;20029;-77
2021/05/14 00:32:08;;;;;;;5.70;4.05;;;;;;;19.21;46.36;98801.97;5057059;28;20426;-78
2021/05/14 00:34:36;;;;;;;4.68;3.50;;;;;;;19.29;46.49;98822.94;5056880;28;20087;-78
2021/05/14 00:37:01;;;;;;;4.47;3.50;;;;;;;19.25;46.51;98821.81;5056862;28;20446;-76
2021/05/14 00:39:26;;;;;;;3.55;3.25;;;;;;;18.91;46.50;98762.34;5056875;28;20029;-77
2021/05/14 00:41:52;;;;;;;4.93;3.60;;;;;;;18.71;46.66;98728.97;5057150;28;20052;-77
2021/05/14 00:44:35;;;;;;;5.07;3.47;;;;;;;19.28;46.71;98829.34;5057249;28;20032;-77
2021/05/14 00:47:05;;;;;;;8.55;3.70;;;;;;;19.18;46.62;98810.50;5039225;28;20342;-78
2021/05/14 00:49:30;;;;;;;4.95;3.63;;;;;;;18.90;46.86;98782.13;5056722;28;20025;-77
2021/05/14 00:51:58;;;;;;;5.10;3.30;;;;;;;19.30;46.64;98843.28;5057180;28;20021;-78
2021/05/14 00:54:24;;;;;;;4.80;3.28;;;;;;;19.29;46.61;98841.69;5056995;28;20029;-77
2021/05/14 00:56:50;;;;;;;3.42;3.13;;;;;;;19.22;46.63;98835.72;5056784;28;20027;-77
2021/05/14 00:59:16;;;;;;;6.20;3.30;;;;;;;19.11;47.15;98823.28;5056633;28;20339;-76
2021/05/14 01:01:41;;;;;;;5.55;3.75;;;;;;;19.04;46.77;98812.78;5056446;28;20021;-78
2021/05/14 01:04:07;;;;;;;6.35;3.78;;;;;;;19.14;46.66;98842.31;5056387;28;20032;-78
2021/05/14 01:06:32;;;;;;;4.88;3.80;;;;;;;18.86;46.85;98794.38;5056385;28;20028;-77
2021/05/14 01:09:00;;;;;;;5.53;4.15;;;;;;;19.01;46.86;98832.81;5056508;28;20021;-77
2021/05/14 01:11:25;;;;;;;6.28;4.00;;;;;;;18.94;47.02;98836.72;5056254;28;20025;-77
2021/05/14 01:13:51;;;;;;;4.47;3.95;;;;;;;18.75;47.17;98811.34;5056362;28;20516;-77
2021/05/14 01:16:17;;;;;;;7.70;4.22;;;;;;;18.70;47.31;98806.75;5056273;28;20032;-77
2021/05/14 01:18:42;;;;;;;7.70;4.05;;;;;;;18.40;47.16;98764.34;5056213;28;20331;-74
2021/05/14 01:21:08;;;;;;;5.70;3.80;;;;;;;18.54;47.54;98821.72;5056363;28;20063;-77
2021/05/14 01:23:34;;;;;;;5.57;4.10;;;;;;;18.26;47.46;98798.63;5038476;28;20025;-77
2021/05/14 01:25:59;;;;;;;5.15;4.07;;;;;;;18.39;47.80;98824.19;5038490;28;20021;-77
2021/05/14 01:28:25;;;;;;;4.95;3.65;;;;;;;18.25;47.72;98806.91;5055835;28;20021;-77
2021/05/14 01:30:50;;;;;;;6.22;3.83;;;;;;;18.37;47.65;98828.97;5038358;28;20032;-78
2021/05/14 01:33:16;;;;;;;4.60;4.00;;;;;;;18.46;47.94;98842.72;5037624;28;20021;-77
2021/05/14 01:35:42;;;;;;;5.00;4.25;;;;;;;18.25;48.01;98812.25;5055686;28;20036;-77
2021/05/14 01:38:07;;;;;;;7.40;4.10;;;;;;;18.46;47.83;98853.44;5055838;28;20035;-78
2021/05/14 01:40:36;;;;;;;4.30;3.90;;;;;;;18.34;47.96;98827.59;5055716;28;20149;-77
2021/05/14 01:43:03;;;;;;;7.13;4.38;;;;;;;18.37;48.15;98842.34;5056037;28;20435;-77
2021/05/14 01:45:29;;;;;;;5.97;4.28;;;;;;;18.25;48.30;98839.78;5055613;28;20026;-76
2021/05/14 01:47:55;;;;;;;5.93;4.70;;;;;;;17.99;48.62;98819.88;5055703;28;20017;-74
2021/05/14 01:50:20;;;;;;;5.38;4.20;;;;;;;17.85;48.63;98799.91;5055557;28;20374;-77
2021/05/14 01:52:46;;;;;;;5.43;4.80;;;;;;;17.45;48.71;98754.59;5043031;28;20025;-76
2021/05/14 01:55:13;;;;;;;6.30;4.47;;;;;;;17.39;48.58;98748.38;5057294;28;20450;-77
2021/05/14 01:57:38;;;;;;;6.22;5.13;;;;;;;17.64;48.78;98801.38;5055259;28;20021;-78
2021/05/14 02:00:06;;;;;;;5.32;4.82;;;;;;;17.78;48.76;98821.38;5055563;28;20028;-78
2021/05/14 02:02:31;;;;;;;6.65;4.93;;;;;;;17.96;49.09;98856.94;5055319;28;20086;-78
2021/05/14 02:04:57;;;;;;;8.07;5.40;;;;;;;17.62;48.90;98819.47;5055347;28;20393;-76
2021/05/14 02:07:22;;;;;;;6.22;4.78;;;;;;;17.52;48.93;98787.28;5055364;28;20029;-77
2021/05/14 02:09:48;;;;;;;5.88;4.47;;;;;;;17.43;49.48;98767.38;5037410;28;20029;-78
2021/05/14 02:12:14;;;;;;;8.65;4.50;;;;;;;17.87;49.11;98837.84;5055268;28;20029;-77
2021/05/14 02:14:39;;;;;;;9.85;5.10;;;;;;;18.03;49.42;98857.59;5055103;28;20028;-77
2021/05/14 02:17:04;;;;;;;7.28;5.20;;;;;;;17.81;49.39;98824.63;5055125;28;20017;-77
2021/05/14 02:19:30;;;;;;;8.18;5.07;;;;;;;17.27;49.13;98752.16;5055017;28;20453;-77
2021/05/14 02:21:56;;;;;;;7.40;4.90;;;;;;;17.46;49.34;98788.25;5055066;28;20174;-77
2021/05/14 02:24:21;;;;;;;7.57;4.70;;;;;;;17.50;49.43;98797.38;5054917;28;20023;-76
2021/05/14 02:26:46;;;;;;;7.22;5.10;;;;;;;17.70;49.53;98834.31;5054651;28;20032;-77
2021/05/14 02:29:12;;;;;;;6.22;4.32;;;;;;;17.48;49.42;98818.16;5055165;28;20029;-77
2021/05/14 02:31:37;;;;;;;6.75;4.55;;;;;;;17.82;49.68;98874.31;5037215;28;20028;-77
2021/05/14 02:34:03;;;;;;;9.52;5.03;;;;;;;17.75;49.35;98872.59;5055028;28;20036;-77
2021/05/14 02:36:28;;;;;;;8.25;4.78;;;;;;;17.66;49.45;98875.88;5054759;28;20021;-77
2021/05/14 02:38:53;;;;;;;6.15;5.00;;;;;;;17.36;49.79;98847.59;5054950;28;20032;-77
2021/05/14 02:41:19;;;;;;;8.63;4.85;;;;;;;17.59;50.01;98880.56;5055307;28;20100;-77
2021/05/14 02:43:44;;;;;;;6.50;4.97;;;;;;;17.11;50.30;98829.25;5054662;28;20017;-77
2021/05/14 02:46:11;;;;;;;5.43;4.65;;;;;;;17.13;50.04;98837.00;5054686;28;20419;-78
2021/05/14 02:48:37;;;;;;;6.60;4.53;;;;;;;17.37;50.20;98891.91;5036943;28;20024;-78
2021/05/14 02:51:02;;;;;;;8.82;5.05;;;;;;;16.97;50.31;98846.53;5036998;28;20035;-78
2021/05/14 02:53:28;;;;;;;6.38;4.70;;;;;;;16.66;50.44;98780.31;5054476;28;20028;-76
2021/05/14 02:55:53;;;;;;;7.35;4.78;;;;;;;17.27;50.28;98896.22;5054574;28;20032;-77
2021/05/14 02:58:19;;;;;;;8.65;4.88;;;;;;;16.80;50.53;98819.00;5036784;28;20013;-78
2021/05/14 03:00:45;;;;;;;6.95;5.43;;;;;;;17.19;50.67;98897.41;5036823;28;20335;-76
2021/05/14 03:03:11;;;;;;;7.68;5.45;;;;;;;17.21;50.82;98897.19;5037048;28;20025;-77
2021/05/14 03:05:36;;;;;;;6.22;5.03;;;;;;;17.18;50.55;98897.66;5054405;28;20043;-76
2021/05/14 03:08:02;;;;;;;7.78;4.57;;;;;;;16.95;50.69;98885.16;5054459;28;20070;-77
2021/05/14 03:10:27;;;;;;;7.90;5.90;;;;;;;17.12;50.88;98910.88;5054470;28;20025;-77
2021/05/14 03:12:53;;;;;;;6.22;5.20;;;;;;;16.37;51.02;98798.88;5054432;28;20100;-76
2021/05/14 03:15:18;;;;;;;9.77;5.25;;;;;;;16.50;50.71;98843.94;5036764;28;20446;-77
2021/05/14 03:17:44;;;;;;;7.82;5.18;;;;;;;16.92;51.01;98905.09;5036601;28;20480;-78
2021/05/14 03:20:10;;;;;;;9.70;5.30;;;;;;;16.89;51.26;98921.56;5054456;28;20025;-77
2021/05/14 03:22:35;;;;;;;7.65;5.80;;;;;;;16.53;51.33;98878.09;5036575;28;20334;-77
2021/05/14 03:25:01;;;;;;;7.80;4.78;;;;;;;16.81;51.58;98919.25;5036637;28;20078;-75
2021/05/14 03:27:26;;;;;;;5.40;4.75;;;;;;;16.77;51.43;98902.09;5054115;28;20028;-77
2021/05/14 03:29:52;;;;;;;5.93;4.82;;;;;;;16.71;51.37;98893.19;5054155;28;20320;-77
2021/05/14 03:32:17;;;;;;;10.00;5.40;;;;;;;16.92;51.12;98929.09;5054329;28;20028;-77
2021/05/14 03:34:42;;;;;;;6.85;5.32;;;;;;;16.90;51.26;98928.53;5054142;28;20021;-78
2021/05/14 03:37:08;;;;;;;9.75;4.97;;;;;;;16.91;50.93;98924.81;5055082;28;20025;-78
2021/05/14 03:39:39;;;;;;;6.57;4.78;;;;;;;16.50;50.95;98869.78;5038999;28;20032;-78
2021/05/14 03:42:13;;;;;;;8.07;5.15;;;;;;;16.64;50.92;98881.81;5036568;28;20419;-77
2021/05/14 03:44:39;;;;;;;6.60;5.15;;;;;;;16.99;50.83;98931.63;5054039;28;20192;-78
2021/05/14 03:47:05;;;;;;;6.07;4.38;;;;;;;16.41;50.64;98834.66;5054175;28;20029;-75
2021/05/14 03:49:33;;;;;;;7.60;5.22;;;;;;;16.92;50.62;98904.28;5054010;28;20029;-76
2021/05/14 03:51:58;;;;;;;7.28;5.03;;;;;;;16.67;50.85;98862.72;5036322;28;20429;-76
2021/05/14 03:54:24;;;;;;;5.88;4.65;;;;;;;17.03;50.70;98920.28;5053930;28;20029;-77
2021/05/14 03:56:49;;;;;;;7.45;4.68;;;;;;;16.99;50.67;98908.44;5039318;28;20021;-76
2021/05/14 03:59:15;;;;;;;7.65;4.95;;;;;;;17.21;50.80;98945.19;5057626;28;20024;-78
2021/05/14 04:01:41;;;;;;;10.23;5.70;;;;;;;16.91;50.79;98892.00;5039818;28;20013;-77
2021/05/14 04:04:06;;;;;;;10.77;6.13;;;;;;;17.08;50.74;98938.22;5057647;28;20091;-78
2021/05/14 04:06:32;;;;;;;9.20;4.95;;;;;;;17.03;50.90;98938.13;5057451;28;20033;-76
2021/05/14 04:08:57;;;;;;;6.88;5.18;;;;;;;17.12;51.13;98948.22;5057627;28;20020;-78
2021/05/14 04:16:45;;;;;;;20.85;12.95;;;;;;;17.07;51.04;98928.59;5057608;28;20052;-78
2021/05/14 04:19:10;;;;;;;42.35;21.40;;;;;;;17.23;51.05;98951.09;5057317;28;20370;-77
2021/05/14 04:21:36;;;;;;;34.20;19.05;;;;;;;17.38;50.69;98964.75;5057133;28;20091;-79
2021/05/14 04:24:03;;;;;;;29.35;16.58;;;;;;;17.41;50.54;98961.63;5057554;28;20036;-76
2021/05/14 04:26:28;;;;;;;30.83;17.23;;;;;;;17.47;50.55;98956.16;5057169;28;20032;-78
2021/05/14 04:28:54;;;;;;;22.85;14.63;;;;;;;17.10;50.80;98891.63;5057107;28;20013;-77
2021/05/14 04:31:19;;;;;;;22.67;14.48;;;;;;;17.33;50.69;98929.97;5039462;28;20024;-76
2021/05/14 04:33:44;;;;;;;16.88;11.90;;;;;;;17.52;50.68;98957.28;5056966;28;20556;-75
2021/05/14 04:36:10;;;;;;;17.35;10.35;;;;;;;17.64;50.96;98971.41;5056946;28;20039;-78
2021/05/14 04:38:35;;;;;;;11.70;8.60;;;;;;;17.50;50.92;98944.19;5056786;28;20021;-77
2021/05/14 04:41:01;;;;;;;14.88;8.98;;;;;;;17.50;51.58;98946.03;5056968;28;20411;-78
2021/05/14 04:43:26;;;;;;;12.63;8.00;;;;;;;17.75;51.28;98974.06;5056971;28;20021;-78
2021/05/14 04:45:51;;;;;;;10.73;7.53;;;;;;;17.85;51.29;98975.34;5056737;28;20025;-77
2021/05/14 04:48:17;;;;;;;13.20;7.00;;;;;;;17.92;51.22;98966.13;5056876;28;20419;-76
2021/05/14 04:50:42;;;;;;;9.35;7.07;;;;;;;17.87;51.05;98941.19;5056591;28;20055;-78
2021/05/14 04:53:09;;;;;;;11.25;7.80;;;;;;;18.13;51.36;98961.94;5038967;28;20078;-78
2021/05/14 04:55:35;;;;;;;11.88;7.43;;;;;;;18.28;51.13;98966.75;5038912;28;20029;-77
2021/05/14 04:58:01;;;;;;;7.75;6.53;;;;;;;18.39;51.25;98979.22;5056697;28;20057;-77
2021/05/14 05:00:27;;;;;;;9.65;7.07;;;;;;;18.46;51.39;98965.69;5038836;28;20025;-76
2021/05/14 05:02:54;;;;;;;11.82;6.72;;;;;;;18.48;51.32;98972.41;5038685;28;20021;-77
2021/05/14 05:05:20;;;;;;;9.88;6.55;;;;;;;18.42;51.13;98950.13;5056391;28;20151;-77
2021/05/14 05:07:46;;;;;;;10.77;7.10;;;;;;;18.66;51.38;98982.94;5055278;28;20446;-77
2021/05/14 05:10:12;;;;;;;10.65;6.20;;;;;;;18.74;51.19;98987.06;5056230;28;20021;-75
2021/05/14 05:12:37;;;;;;;11.18;6.40;;;;;;;18.78;51.54;98993.53;5055982;28;20029;-76
2021/05/14 05:15:04;;;;;;;9.85;5.55;;;;;;;18.74;51.58;98981.72;5038850;28;20021;-78
2021/05/14 05:17:29;;;;;;;9.55;5.80;;;;;;;18.71;52.00;98977.66;5056176;28;20021;-76
2021/05/14 05:19:55;;;;;;;9.02;6.40;;;;;;;18.66;52.04;98966.88;5056038;28;20021;-77
2021/05/14 05:22:21;;;;;;;9.60;6.55;;;;;;;18.95;52.03;98988.97;5061198;28;20047;-77
2021/05/14 05:24:47;;;;;;;8.27;6.55;;;;;;;19.02;51.93;98984.25;5056994;28;20025;-77
2021/05/14 05:27:13;;;;;;;7.63;5.28;;;;;;;18.55;51.85;98908.09;5055997;28;20025;-76
2021/05/14 05:29:39;;;;;;;9.85;5.53;;;;;;;19.18;51.80;98987.94;5056298;28;20021;-75
2021/05/14 05:32:05;;;;;;;5.07;4.57;;;;;;;18.57;51.63;98901.44;5055922;28;20484;-78
2021/05/14 05:34:31;;;;;;;6.82;5.65;;;;;;;19.18;51.66;98995.97;5055767;28;20031;-77
2021/05/14 05:36:56;;;;;;;9.52;5.30;;;;;;;18.91;51.46;98946.91;5055860;28;20052;-78
2021/05/14 05:39:22;;;;;;;6.93;4.93;;;;;;;19.23;51.22;98979.97;5055629;28;20032;-78
2021/05/14 05:41:47;;;;;;;8.07;5.30;;;;;;;19.39;51.13;98990.91;5034811;28;20036;-77
2021/05/14 05:44:13;;;;;;;7.65;5.43;;;;;;;19.37;51.15;98985.81;5055252;28;20029;-79
2021/05/14 05:46:38;;;;;;;7.20;5.25;;;;;;;19.31;50.83;98986.78;5051316;28;20048;-74
2021/05/14 05:49:04;;;;;;;5.60;4.93;;;;;;;19.33;50.86;98985.50;5037810;28;20051;-79
2021/05/14 05:51:29;;;;;;;6.53;4.47;;;;;;;19.33;50.80;98977.47;5044428;28;20096;-76
2021/05/14 05:53:55;;;;;;;7.43;4.72;;;;;;;19.41;50.66;98986.13;5054846;28;20024;-80
2021/05/14 05:56:21;;;;;;;6.22;4.28;;;;;;;19.04;50.25;98938.53;5055047;28;20445;-77
2021/05/14 05:58:46;;;;;;;6.20;3.88;;;;;;;19.47;50.01;99002.00;5054773;28;20082;-77
2021/05/14 06:01:12;;;;;;;6.25;4.40;;;;;;;19.34;49.95;98984.44;5055087;28;20029;-76
2021/05/14 06:03:37;;;;;;;5.78;4.30;;;;;;;19.42;49.88;98999.25;5054540;28;20031;-78
2021/05/14 06:06:03;;;;;;;5.60;4.55;;;;;;;19.16;49.82;98957.13;5036490;28;20029;-78
2021/05/14 06:08:29;;;;;;;5.75;4.15;;;;;;;19.28;49.67;98966.66;5036472;28;20418;-79
2021/05/14 06:10:54;;;;;;;5.05;4.10;;;;;;;19.58;49.58;99011.00;5036814;28;20666;-79
2021/05/14 06:13:20;;;;;;;6.90;4.80;;;;;;;19.25;49.23;98955.66;5054000;28;20115;-79
2021/05/14 06:15:46;;;;;;;8.70;6.25;;;;;;;19.73;49.06;99007.69;5053364;28;20028;-79
2021/05/14 06:18:13;;;;;;;8.20;4.25;;;;;;;19.41;49.36;98946.78;5051790;28;20111;-78
2021/05/14 06:20:41;;;;;;;7.45;6.50;;;;;;;19.46;49.34;98941.47;5051763;28;20512;-80
2021/05/14 06:23:08;;;;;;;9.35;4.55;;;;;;;19.94;49.49;99006.84;5032678;28;20070;-78
2021/05/14 06:25:34;;;;;;;5.63;3.70;;;;;;;19.78;49.12;98978.28;5050796;28;20162;-74
2021/05/14 06:28:00;;;;;;;5.63;3.70;;;;;;;20.07;48.85;99019.88;5051078;28;20021;-77
2021/05/14 06:30:26;;;;;;;4.90;3.55;;;;;;;20.16;48.52;99012.19;5054951;28;20032;-77
2021/05/14 06:32:51;;;;;;;5.32;3.60;;;;;;;20.24;48.34;99009.06;5054471;28;20445;-76
2021/05/14 06:35:17;;;;;;;6.63;3.83;;;;;;;20.21;48.22;98991.59;5053693;28;20033;-77
2021/05/14 06:37:45;;;;;;;7.00;5.05;;;;;;;20.27;47.75;98995.16;5035184;28;20171;-78
2021/05/14 06:40:11;;;;;;;6.72;3.97;;;;;;;20.27;47.73;98979.88;5054464;28;20104;-77
2021/05/14 06:42:37;;;;;;;8.52;4.68;;;;;;;20.49;47.43;99017.34;5052945;28;20036;-79
2021/05/14 06:45:06;;;;;;;7.60;3.60;;;;;;;20.54;47.22;99021.97;5051665;28;20024;-79
2021/05/14 06:47:32;;;;;;;4.88;3.40;;;;;;;20.59;46.91;99013.94;5053432;28;20042;-77
2021/05/14 06:49:57;;;;;;;7.43;3.15;;;;;;;20.68;46.83;99022.34;5053441;28;20107;-77
2021/05/14 06:54:48;;;;;;;6.35;3.53;;;;;;;20.73;46.11;99031.22;5042797;22;20149;-79
2021/05/14 06:57:13;;;;;;;6.75;3.42;;;;;;;20.73;46.00;99036.59;5032541;28;20800;-74
2021/05/14 06:59:42;;;;;;;6.38;3.38;;;;;;;20.74;46.05;99050.81;5114229;22;20052;-74
2021/05/14 07:02:07;;;;;;;9.75;4.20;;;;;;;20.67;46.15;99026.91;5035153;22;20038;-76
2021/05/14 07:04:33;;;;;;;8.52;5.10;;;;;;;19.43;46.34;98826.06;5035861;22;20037;-78
2021/05/14 07:06:58;;;;;;;7.10;3.90;;;;;;;20.79;46.24;99014.09;5013784;28;20109;-79
2021/05/14 07:09:24;;;;;;;13.27;3.83;;;;;;;20.89;46.13;99029.50;5013498;23;20047;-80
2021/05/14 07:11:49;;;;;;;6.75;3.40;;;;;;;21.02;46.05;99026.38;5015624;28;20021;-80
2021/05/14 07:14:14;;;;;;;6.70;3.28;;;;;;;20.72;45.69;98967.91;5017619;28;20033;-81
2021/05/14 07:16:42;;;;;;;13.45;4.57;;;;;;;20.84;45.54;98968.56;5034834;28;20021;-81
2021/05/14 07:19:07;;;;;;;7.45;3.22;;;;;;;21.17;44.85;99007.66;5030854;22;20481;-81
2021/05/14 07:21:33;;;;;;;5.25;3.53;;;;;;;20.88;44.56;98977.72;5034312;28;20163;-76
2021/05/14 07:23:59;;;;;;;3.88;2.63;;;;;;;20.81;44.21;98923.47;5055041;28;20029;-75
2021/05/14 07:26:26;;;;;;;6.45;3.05;;;;;;;21.47;43.75;99036.59;5048950;28;20075;-75
2021/05/14 07:28:51;;;;;;;3.90;2.72;;;;;;;21.43;43.16;99005.16;5028979;28;20360;-79
2021/05/14 07:31:17;;;;;;;4.50;1.95;;;;;;;21.51;41.37;98996.59;5024453;28;20060;-75
2021/05/14 07:33:44;;;;;;;4.30;2.28;;;;;;;21.55;40.81;99003.06;5034594;22;20343;-77
2021/05/14 07:36:10;;;;;;;5.22;2.45;;;;;;;20.34;40.44;98836.75;5015068;28;20104;-81
2021/05/14 07:38:35;;;;;;;3.15;2.00;;;;;;;21.01;40.24;98908.53;5027930;28;20558;-80
2021/05/14 07:41:00;;;;;;;4.82;2.65;;;;;;;21.76;40.05;99015.50;5034834;28;20402;-79
2021/05/14 07:43:26;;;;;;;4.15;3.08;;;;;;;21.49;39.74;98961.94;5034699;28;20037;-79
2021/05/14 07:45:51;;;;;;;4.55;2.70;;;;;;;21.94;39.45;99016.91;5010469;28;20428;-77
2021/05/14 07:48:20;;;;;;;2.92;2.30;;;;;;;22.05;39.19;99013.19;5044381;22;20045;-77
2021/05/14 07:50:47;;;;;;;10.77;7.20;;;;;;;22.19;38.33;99021.56;5020983;28;20033;-76
2021/05/14 07:53:13;;;;;;;4.40;2.40;;;;;;;22.12;38.16;99013.75;5042432;28;20045;-75
2021/05/14 07:55:38;;;;;;;7.80;2.08;;;;;;;21.48;38.05;98900.41;5026695;28;20037;-78
2021/05/14 07:58:04;;;;;;;3.10;2.40;;;;;;;22.14;37.67;98994.66;5017882;23;20045;-75
2021/05/14 08:00:29;;;;;;;2.70;1.90;;;;;;;22.30;37.48;98995.53;5013467;23;20049;-79
2021/05/14 08:02:55;;;;;;;3.15;1.63;;;;;;;22.27;36.68;98983.38;5025736;22;20049;-76
2021/05/14 08:05:20;;;;;;;6.78;3.50;;;;;;;22.45;35.97;99008.97;5014492;28;20069;-79
2021/05/14 08:08:13;;;;;;;4.28;1.48;;;;;;;22.62;35.86;99009.53;4986929;28;20477;-76
2021/05/14 08:10:38;;;;;;;3.50;2.20;;;;;;;21.83;35.49;98880.91;5028043;23;20045;-79
2021/05/14 08:13:04;;;;;;;2.78;2.00;;;;;;;22.75;35.47;99010.84;5035298;28;20108;-81
2021/05/14 08:15:39;;;;;;;2.38;1.45;;;;;;;22.34;35.08;98921.28;5024386;23;20129;-79
2021/05/14 08:18:05;;;;;;;6.38;1.58;;;;;;;21.98;34.90;98856.72;5011797;23;20044;-79
2021/05/14 08:20:41;;;;;;;2.40;1.42;;;;;;;20.85;34.49;98668.84;4999166;28;20108;-81
2021/05/14 08:23:08;;;;;;;1.98;1.17;;;;;;;23.11;34.30;99001.72;5002856;28;20047;-76
2021/05/14 08:25:39;;;;;;;4.13;1.30;;;;;;;20.99;33.57;98669.94;5048523;22;20095;-80
2021/05/14 08:28:05;;;;;;;4.93;1.65;;;;;;;23.00;33.41;98948.13;5040278;23;20054;-79
2021/05/14 08:30:36;;;;;;;6.57;2.25;;;;;;;23.45;33.10;99015.34;5026978;22;20358;-81
2021/05/14 08:33:01;;;;;;;;;;;;;;;23.39;32.73;99010.25;5047458;23;20040;-80
2021/05/14 08:35:27;;;;;;;2.83;1.27;;;;;;;22.75;33.16;98903.19;5031371;22;19945;-80
2021/05/14 08:37:52;;;;;;;3.70;1.60;;;;;;;23.35;33.30;98958.81;5009788;28;20065;-80
2021/05/14 08:40:18;;;;;;;3.40;2.20;;;;;;;23.74;33.04;99009.31;5020038;28;20053;-80
2021/05/14 08:42:44;;;;;;;3.42;1.80;;;;;;;23.79;32.35;98979.69;5039685;22;20152;-80
2021/05/14 08:45:15;;;;;;;4.75;2.97;;;;;;;23.86;31.91;98953.22;5037387;28;20021;-80
2021/05/14 08:47:41;;;;;;;4.53;2.38;;;;;;;24.11;31.46;98975.69;5062303;22;20060;-81
2021/05/14 08:50:11;;;;;;;3.53;1.77;;;;;;;24.47;30.48;99005.94;5046441;23;20486;-80
2021/05/14 08:52:42;;;;;;;1.85;1.30;;;;;;;24.58;30.78;99008.31;5038931;28;20186;-81
2021/05/14 08:55:10;;;;;;;3.17;1.55;;;;;;;24.50;30.36;98973.00;5056763;28;20028;-81
2021/05/14 08:57:38;;;;;;;2.33;1.60;;;;;;;24.90;30.22;99001.56;5039136;28;20055;-79
2021/05/14 09:00:05;;;;;;;2.85;1.38;;;;;;;25.03;29.63;98996.31;5061603;28;20036;-80
2021/05/14 09:02:33;;;;;;;4.03;1.60;;;;;;;25.15;29.24;99003.22;5034069;28;20124;-76
2021/05/14 09:04:58;;;;;;;2.70;1.30;;;;;;;25.18;29.45;98998.06;5021203;28;20036;-79
2021/05/14 09:07:24;;;;;;;4.10;1.48;;;;;;;25.30;29.23;98982.28;5037569;28;20021;-80
2021/05/14 09:10:10;;;;;;;3.47;1.85;;;;;;;25.73;28.93;99000.44;5037477;28;20412;-79
2021/05/14 09:12:37;;;;;;;5.95;2.50;;;;;;;25.87;28.98;98993.19;5052412;28;20032;-78
2021/05/14 09:15:29;;;;;;;4.00;1.75;;;;;;;26.19;29.17;98998.72;5056325;28;20017;-80
2021/05/14 09:18:04;;;;;;;;;;;;;;;26.28;29.03;98993.44;5056440;28;20076;-79
2021/05/14 09:20:34;;;;;;;5.40;2.38;;;;;;;26.50;28.97;98974.69;5055821;28;19912;-80
2021/05/14 09:22:59;;;;;;;4.68;2.03;;;;;;;26.35;28.21;98936.25;5055962;28;20096;-78
2021/05/14 09:25:25;;;;;;;4.38;2.13;;;;;;;26.73;28.17;98981.06;5038600;23;20064;-79
2021/05/14 09:27:50;;;;;;;3.90;2.63;;;;;;;26.96;27.96;98984.75;5035961;28;20021;-79
2021/05/14 09:30:16;;;;;;;7.30;2.45;;;;;;;27.05;27.45;98966.72;5041308;28;20108;-78
2021/05/14 09:32:41;;;;;;;4.45;1.73;;;;;;;26.91;27.34;98917.94;5038726;28;20116;-80
2021/05/14 09:35:08;;;;;;;6.80;4.80;;;;;;;27.42;27.23;98965.72;5025335;23;20344;-78
2021/05/14 09:37:45;;;;;;;3.65;2.08;;;;;;;27.29;26.49;98906.09;5044269;22;20057;-81
2021/05/14 09:40:18;;;;;;;3.25;1.40;;;;;;;27.74;26.48;98953.97;5036162;28;20086;-78
2021/05/14 09:42:45;;;;;;;3.17;1.63;;;;;;;27.66;26.40;98943.84;5043579;23;20056;-79
2021/05/14 09:45:27;;;;;;;8.77;2.83;;;;;;;27.93;25.60;98942.97;5062952;22;20052;-78
2021/05/14 09:48:27;;;;;;;3.53;1.80;;;;;;;27.80;25.99;98946.53;5055525;28;20078;-81
2021/05/14 09:50:53;;;;;;;3.42;1.80;;;;;;;26.88;26.93;98875.19;5055789;28;20029;-81
2021/05/14 09:53:20;;;;;;;5.68;2.33;;;;;;;26.77;27.21;98922.53;5037141;28;20382;-80
2021/05/14 09:56:04;;;;;;;6.57;2.50;;;;;;;25.49;27.69;98785.00;5052658;22;20049;-79
2021/05/14 09:58:31;;;;;;;4.45;1.40;;;;;;;26.11;28.18;98947.97;5060536;28;20031;-79
2021/05/14 10:00:57;;;;;;;2.10;1.50;;;;;;;25.82;28.23;98953.50;5066914;28;20123;-81
2021/05/14 10:03:25;;;;;;;3.42;2.33;;;;;;;25.25;28.83;98881.50;5043482;23;20053;-80
2021/05/14 10:05:55;;;;;;;8.70;3.00;;;;;;;25.48;28.95;98963.69;5010167;28;20121;-80
2021/05/14 10:08:21;;;;;;;8.90;6.50;;;;;;;25.20;29.86;98933.72;5027467;22;20053;-79
2021/05/14 10:10:47;;;;;;;4.60;3.38;;;;;;;24.94;29.73;98908.06;5054422;28;20025;-77
2021/05/14 10:13:13;;;;;;;4.28;2.13;;;;;;;24.75;30.01;98908.00;5053655;28;20371;-81
2021/05/14 10:15:40;;;;;;;6.10;2.58;;;;;;;25.02;30.34;98948.78;5040619;28;20059;-78
2021/05/14 10:18:12;;;;;;;6.60;2.40;;;;;;;24.92;30.47;98948.06;5046427;28;20064;-80
2021/05/14 10:20:38;;;;;;;7.20;3.05;;;;;;;24.82;31.08;98953.56;5036874;28;20037;-80
2021/05/14 10:23:04;;;;;;;4.97;2.38;;;;;;;24.47;31.10;98916.91;5043281;28;20021;-80
2021/05/14 10:25:43;;;;;;;6.40;3.50;;;;;;;24.66;31.11;98952.91;5044966;28;20025;-78
2021/05/14 10:28:26;;;;;;;3.72;2.35;;;;;;;24.43;31.63;98938.25;5041750;28;20105;-79
2021/05/14 10:30:58;;;;;;;6.30;2.65;;;;;;;24.46;31.82;98943.06;5053619;28;20112;-79
2021/05/14 10:33:45;;;;;;;2.90;1.80;;;;;;;24.39;32.56;98939.91;5032450;28;20032;-80
2021/05/14 10:36:33;;;;;;;9.02;5.63;;;;;;;24.31;32.96;98937.81;5047298;28;20025;-77
2021/05/14 10:39:06;;;;;;;14.23;10.35;;;;;;;24.00;33.73;98908.34;5021786;28;20046;-77
2021/05/14 10:41:35;;;;;;;5.80;3.42;;;;;;;23.38;34.12;98815.47;5054569;28;20311;-80
2021/05/14 10:44:03;;;;;;;4.78;2.90;;;;;;;24.11;34.40;98933.34;5045441;28;20028;-77
2021/05/14 10:46:29;;;;;;;8.40;2.75;;;;;;;24.07;34.47;98933.09;5028128;28;20029;-80
2021/05/14 10:49:05;;;;;;;7.88;3.53;;;;;;;24.01;34.90;98928.84;5041571;28;20025;-79
2021/05/14 10:51:46;;;;;;;6.85;3.85;;;;;;;23.96;34.63;98941.56;5054380;28;20079;-76
2021/05/14 10:54:39;;;;;;;4.80;2.67;;;;;;;23.86;34.73;98937.03;5054412;28;20029;-77
2021/05/14 10:57:05;;;;;;;4.07;1.85;;;;;;;23.44;34.55;98887.09;5053114;28;20052;-79
2021/05/14 10:59:33;;;;;;;4.78;2.65;;;;;;;23.43;34.61;98898.97;5054307;28;20431;-78
2021/05/14 11:02:00;;;;;;;8.93;2.35;;;;;;;23.42;34.61;98918.91;5053848;28;20029;-78
2021/05/14 11:04:39;;;;;;;5.35;2.10;;;;;;;22.92;34.65;98857.97;5024154;28;20048;-79
2021/05/14 11:07:05;;;;;;;3.53;1.77;;;;;;;23.61;34.58;98985.66;5049125;28;20048;-78
2021/05/14 11:09:30;;;;;;;4.70;2.10;;;;;;;23.31;34.30;98928.09;5027699;28;20065;-79
2021/05/14 11:11:57;;;;;;;7.20;3.83;;;;;;;23.56;34.35;98983.00;5034629;28;20442;-79
2021/05/14 11:14:23;;;;;;;4.60;2.55;;;;;;;23.43;34.04;98976.28;5025640;28;20033;-78
2021/05/14 11:16:52;;;;;;;7.15;3.85;;;;;;;23.38;35.66;99020.22;5016611;28;20067;-80
2021/05/14 11:19:25;;;;;;;5.32;2.30;;;;;;;22.98;40.08;99014.91;5047290;28;20029;-78
2021/05/14 11:22:11;;;;;;;3.30;2.05;;;;;;;22.30;41.25;98980.19;5053412;28;20119;-77
2021/05/14 11:24:47;;;;;;;3.17;2.13;;;;;;;21.99;41.67;99000.78;5031896;28;20033;-75
2021/05/14 11:27:27;;;;;;;2.90;1.80;;;;;;;21.76;43.00;99002.06;5047009;28;20121;-75
2021/05/14 11:29:54;;;;;;;4.75;2.72;;;;;;;21.69;43.18;99016.84;5026323;28;20040;-76
2021/05/14 11:32:21;;;;;;;5.90;3.80;;;;;;;21.63;43.67;99017.88;5052132;28;20049;-77
2021/05/14 11:34:53;;;;;;;4.85;2.75;;;;;;;21.69;44.49;99014.16;5032480;28;20032;-78
2021/05/14 11:37:23;;;;;;;4.80;2.45;;;;;;;21.75;45.29;99027.34;5047250;28;20288;-77
2021/05/14 11:39:48;;;;;;;8.77;2.70;;;;;;;21.68;45.44;98988.34;5053199;28;20040;-78